Time;durP1;ratioP1;P1;durP2;ratioP2;P2;SDS_P1;SDS_P2;PMS_P1;PMS_P2;Temp;Humidity;BMP_temperature;BMP_pressure;BME280_temperature;BME280_humidity;BME280_pressure;Samples;Min_cycle;Max_cycle;Signal;HPM_P1;HPM_P2
2022/11/23 00:01:32;;;;;;;14.98;13.50;;;5.80;99.90;;;;;;5003284;28;20049;-76
2022/11/23 00:04:11;;;;;;;16.02;14.55;;;5.80;99.90;;;;;;4982540;28;20057;-76
2022/11/23 00:06:39;;;;;;;13.70;12.48;;;5.90;99.90;;;;;;4979906;28;20049;-76
2022/11/23 00:09:06;;;;;;;13.05;11.85;;;5.90;99.90;;;;;;5004642;28;20223;-75
2022/11/23 00:11:34;;;;;;;15.60;12.73;;;5.90;99.90;;;;;;4999107;28;20041;-76
2022/11/23 00:14:01;;;;;;;15.02;13.63;;;5.90;99.90;;;;;;4996576;28;20136;-76
2022/11/23 00:16:29;;;;;;;15.20;13.75;;;5.90;99.90;;;;;;4998804;28;20048;-76
2022/11/23 00:18:58;;;;;;;14.90;13.50;;;6.00;99.90;;;;;;5004875;28;20053;-76
2022/11/23 00:21:28;;;;;;;25.27;12.77;;;6.00;99.90;;;;;;4988432;28;20053;-75
2022/11/23 00:23:55;;;;;;;14.73;13.50;;;6.00;99.90;;;;;;5000635;28;20760;-76
2022/11/23 00:26:22;;;;;;;14.77;12.75;;;6.00;99.90;;;;;;4997845;28;20124;-74
2022/11/23 00:28:49;;;;;;;14.63;13.45;;;6.00;99.90;;;;;;4982730;28;20037;-77
2022/11/23 00:31:18;;;;;;;18.48;14.63;;;6.10;99.90;;;;;;4984645;28;20069;-76
2022/11/23 00:33:53;;;;;;;15.10;13.40;;;6.00;99.90;;;;;;4994815;28;20085;-76
2022/11/23 00:36:22;;;;;;;14.43;13.30;;;6.00;99.90;;;;;;4986292;28;20272;-76
2022/11/23 00:38:53;;;;;;;14.90;13.55;;;6.00;99.90;;;;;;4980187;28;20155;-75
2022/11/23 00:41:22;;;;;;;14.68;13.45;;;6.00;99.90;;;;;;4980117;28;20057;-75
2022/11/23 00:43:49;;;;;;;14.68;13.30;;;6.10;99.90;;;;;;4996511;28;20117;-75
2022/11/23 00:46:27;;;;;;;15.20;13.52;;;6.10;99.90;;;;;;4985084;28;20136;-75
2022/11/23 00:48:55;;;;;;;15.00;13.55;;;6.10;99.90;;;;;;4998110;28;20276;-75
2022/11/23 00:51:25;;;;;;;15.02;13.63;;;6.10;99.90;;;;;;4981291;28;20239;-76
2022/11/23 00:53:52;;;;;;;15.63;14.20;;;6.10;99.90;;;;;;4996180;28;20474;-75
2022/11/23 00:56:20;;;;;;;14.20;12.90;;;6.10;99.90;;;;;;4999578;28;20207;-75
2022/11/23 00:58:51;;;;;;;14.95;13.60;;;6.10;99.90;;;;;;4979196;28;20083;-75
2022/11/23 01:01:20;;;;;;;15.50;14.13;;;6.10;99.90;;;;;;5001222;28;20052;-76
2022/11/23 01:03:53;;;;;;;15.90;14.48;;;6.10;99.90;;;;;;4995677;28;20128;-75
2022/11/23 01:06:25;;;;;;;17.60;13.35;;;6.10;99.90;;;;;;4981364;28;20383;-75
2022/11/23 01:09:02;;;;;;;15.07;13.77;;;6.10;99.90;;;;;;4996871;28;20400;-75
2022/11/23 01:11:31;;;;;;;17.30;13.70;;;6.10;99.90;;;;;;4980524;28;20211;-75
2022/11/23 01:14:00;;;;;;;15.10;13.40;;;6.00;99.90;;;;;;4981353;28;20068;-75
2022/11/23 01:16:38;;;;;;;14.82;12.65;;;6.10;99.90;;;;;;4980110;28;20171;-76
2022/11/23 01:19:09;;;;;;;13.02;11.82;;;6.10;99.90;;;;;;4995973;28;20458;-76
2022/11/23 01:21:36;;;;;;;14.55;12.65;;;6.10;99.90;;;;;;4998119;28;20095;-76
2022/11/23 01:24:17;;;;;;;15.05;13.65;;;6.10;99.90;;;;;;4985036;28;20050;-76
2022/11/23 01:26:44;;;;;;;13.35;12.05;;;6.10;99.90;;;;;;4977774;28;21308;-75
2022/11/23 01:29:12;;;;;;;13.27;12.02;;;6.10;99.90;;;;;;5003223;28;20785;-76
2022/11/23 01:31:39;;;;;;;18.15;11.73;;;6.10;99.90;;;;;;4992871;28;20053;-73
2022/11/23 01:34:14;;;;;;;13.10;11.15;;;6.10;99.90;;;;;;4997526;28;20104;-76
2022/11/23 01:36:41;;;;;;;16.27;12.52;;;6.10;99.90;;;;;;4977213;28;20188;-76
2022/11/23 01:39:09;;;;;;;13.45;12.02;;;6.20;99.90;;;;;;4986647;28;20041;-75
2022/11/23 01:41:42;;;;;;;13.43;11.95;;;6.20;99.90;;;;;;5000389;28;20041;-76
2022/11/23 01:44:40;;;;;;;13.80;12.25;;;6.20;99.90;;;;;;5006064;28;20041;-76
2022/11/23 01:47:08;;;;;;;13.43;11.15;;;6.20;99.90;;;;;;4981886;28;20045;-76
2022/11/23 01:53:51;;;;;;;13.15;11.63;;;6.20;99.90;;;;;;4990716;23;20412;-78
2022/11/23 01:56:39;;;;;;;14.75;11.98;;;6.20;99.90;;;;;;4964066;28;20118;-78
2022/11/23 01:59:11;;;;;;;13.25;11.93;;;6.20;99.90;;;;;;4961230;28;20051;-78
2022/11/23 02:01:38;;;;;;;12.90;11.68;;;6.20;99.90;;;;;;4945970;28;20035;-78
2022/11/23 02:04:10;;;;;;;14.93;13.15;;;6.20;99.90;;;;;;4964562;28;20043;-78
2022/11/23 02:06:43;;;;;;;13.68;12.38;;;6.20;99.90;;;;;;4945394;28;20456;-78
2022/11/23 02:09:10;;;;;;;14.18;12.95;;;6.20;99.90;;;;;;4963565;28;20051;-78
2022/11/23 02:11:37;;;;;;;14.45;13.13;;;6.20;99.90;;;;;;4950483;28;20057;-78
2022/11/23 02:14:04;;;;;;;14.55;12.90;;;6.20;99.90;;;;;;4964762;28;20057;-77
2022/11/23 02:16:31;;;;;;;17.80;14.13;;;6.20;99.90;;;;;;4947085;28;20494;-78
2022/11/23 02:18:58;;;;;;;16.67;13.50;;;6.20;99.90;;;;;;4980915;28;20536;-77
2022/11/23 02:21:25;;;;;;;14.15;12.77;;;6.20;99.90;;;;;;4967235;28;20101;-77
2022/11/23 02:24:16;;;;;;;13.65;12.40;;;6.20;99.90;;;;;;4972808;28;20677;-76
2022/11/23 02:26:43;;;;;;;15.40;12.38;;;6.20;99.90;;;;;;4964145;28;20052;-77
2022/11/23 02:29:21;;;;;;;13.57;11.90;;;6.30;99.90;;;;;;4968782;28;20262;-76
2022/11/23 02:31:47;;;;;;;14.35;12.77;;;6.30;99.90;;;;;;4981577;28;20134;-76
2022/11/23 02:34:16;;;;;;;15.05;13.50;;;6.30;99.90;;;;;;4975988;28;20057;-77
2022/11/23 02:36:47;;;;;;;15.50;14.02;;;6.30;99.90;;;;;;4982950;28;20088;-76
2022/11/23 02:39:33;;;;;;;17.27;13.90;;;6.20;99.90;;;;;;4969012;28;20105;-77
2022/11/23 02:42:03;;;;;;;15.15;13.63;;;6.20;99.90;;;;;;4964776;28;20563;-78
2022/11/23 02:44:36;;;;;;;13.98;12.75;;;6.30;99.90;;;;;;4962670;28;20043;-78
2022/11/23 02:47:06;;;;;;;15.02;13.48;;;6.30;99.90;;;;;;4964098;28;20046;-75
2022/11/23 02:49:33;;;;;;;15.40;14.00;;;6.30;99.90;;;;;;4968820;28;20065;-76
2022/11/23 02:52:00;;;;;;;15.45;13.82;;;6.20;99.90;;;;;;4978126;28;20085;-76
2022/11/23 02:54:28;;;;;;;12.88;11.82;;;6.30;99.90;;;;;;4967755;28;20048;-76
2022/11/23 02:56:56;;;;;;;14.10;12.65;;;6.30;99.90;;;;;;4947464;28;20523;-75
2022/11/23 02:59:22;;;;;;;14.52;13.07;;;6.30;99.90;;;;;;4966962;28;20129;-76
2022/11/23 03:01:51;;;;;;;15.10;13.63;;;6.30;99.90;;;;;;4978640;28;20360;-76
2022/11/23 03:04:18;;;;;;;14.93;12.35;;;6.30;99.90;;;;;;4966223;28;20572;-75
2022/11/23 03:06:53;;;;;;;17.38;14.38;;;6.30;99.90;;;;;;4954662;28;20034;-75
2022/11/23 03:09:19;;;;;;;16.70;14.05;;;6.30;99.90;;;;;;4988660;28;20054;-77
2022/11/23 03:11:46;;;;;;;14.48;13.20;;;6.30;99.90;;;;;;4969223;28;20649;-76
2022/11/23 03:14:13;;;;;;;18.98;14.57;;;6.30;99.90;;;;;;4959947;28;20054;-76
2022/11/23 03:16:48;;;;;;;15.85;14.27;;;6.30;99.90;;;;;;4965385;28;20034;-76
2022/11/23 03:19:17;;;;;;;16.48;14.43;;;6.30;99.90;;;;;;4965479;28;20050;-75
2022/11/23 03:21:45;;;;;;;17.80;14.13;;;6.30;99.90;;;;;;4967057;28;20130;-76
2022/11/23 03:24:12;;;;;;;16.60;14.68;;;6.30;99.90;;;;;;4982940;28;20038;-75
2022/11/23 03:26:39;;;;;;;20.55;14.88;;;6.30;99.90;;;;;;4961574;28;20039;-76
2022/11/23 03:29:09;;;;;;;15.00;13.77;;;6.30;99.90;;;;;;4950426;28;20046;-76
2022/11/23 03:31:38;;;;;;;16.13;14.77;;;6.30;99.90;;;;;;4962262;28;20134;-76
2022/11/23 03:34:09;;;;;;;16.48;14.60;;;6.30;99.90;;;;;;4964360;28;20053;-76
2022/11/23 03:36:37;;;;;;;15.90;14.45;;;6.30;99.90;;;;;;4945163;28;20034;-76
2022/11/23 03:39:04;;;;;;;16.92;14.27;;;6.30;99.90;;;;;;4985768;28;20058;-75
2022/11/23 03:41:51;;;;;;;15.73;14.18;;;6.30;99.90;;;;;;4962123;28;20046;-76
2022/11/23 03:44:20;;;;;;;16.02;14.52;;;6.30;99.90;;;;;;4968151;28;20112;-76
2022/11/23 03:46:49;;;;;;;13.25;12.32;;;6.30;99.90;;;;;;4947293;28;20049;-76
2022/11/23 03:49:16;;;;;;;15.02;13.68;;;6.20;99.90;;;;;;4982772;28;20125;-75
2022/11/23 03:51:43;;;;;;;19.92;14.45;;;6.20;99.90;;;;;;4959302;28;20042;-76
2022/11/23 03:54:09;;;;;;;15.15;13.85;;;6.20;99.90;;;;;;4966259;28;20050;-76
2022/11/23 03:56:37;;;;;;;14.85;13.55;;;6.20;99.90;;;;;;4964316;28;20085;-76
2022/11/23 03:59:04;;;;;;;14.27;13.00;;;6.10;99.90;;;;;;4961164;28;20057;-76
2022/11/23 04:01:30;;;;;;;14.38;13.02;;;6.10;99.90;;;;;;4972379;28;20050;-76
2022/11/23 04:04:02;;;;;;;18.27;16.20;;;6.10;99.90;;;;;;4966442;28;20046;-76
2022/11/23 04:06:48;;;;;;;16.48;14.90;;;6.10;99.90;;;;;;4980938;28;20061;-76
2022/11/23 04:09:19;;;;;;;17.92;13.98;;;6.00;99.90;;;;;;4968773;28;20401;-76
2022/11/23 04:12:05;;;;;;;15.27;13.75;;;6.00;99.90;;;;;;4962224;28;20042;-75
2022/11/23 04:14:35;;;;;;;17.10;14.20;;;6.00;99.90;;;;;;4962619;28;20074;-75
2022/11/23 04:17:01;;;;;;;16.00;14.48;;;6.10;99.90;;;;;;4964131;28;20122;-76
2022/11/23 04:19:29;;;;;;;18.95;14.60;;;6.10;99.90;;;;;;4962119;28;20113;-75
2022/11/23 04:21:57;;;;;;;15.18;13.65;;;6.10;99.90;;;;;;4946046;28;20034;-76
2022/11/23 04:24:25;;;;;;;15.63;12.95;;;6.10;99.90;;;;;;4963575;28;20520;-75
2022/11/23 04:26:55;;;;;;;15.75;14.15;;;6.20;99.90;;;;;;4962230;28;20134;-75
2022/11/23 04:29:22;;;;;;;17.77;14.50;;;6.20;99.90;;;;;;4962815;28;20142;-75
2022/11/23 04:31:52;;;;;;;14.73;13.43;;;6.20;99.90;;;;;;4945352;28;20061;-75
2022/11/23 04:34:20;;;;;;;20.00;14.02;;;6.20;99.90;;;;;;4945852;28;20070;-75
2022/11/23 04:36:48;;;;;;;15.48;13.98;;;6.20;99.90;;;;;;4959485;28;20049;-75
2022/11/23 04:39:17;;;;;;;15.65;14.35;;;6.20;99.90;;;;;;4976266;28;20133;-76
2022/11/23 04:42:10;;;;;;;17.50;14.98;;;6.20;99.90;;;;;;4973561;28;20042;-76
2022/11/23 04:44:37;;;;;;;16.13;14.68;;;6.10;99.90;;;;;;4961200;28;20037;-75
2022/11/23 04:47:06;;;;;;;16.75;14.60;;;6.20;99.90;;;;;;4976534;28;20126;-75
2022/11/23 04:49:35;;;;;;;17.08;15.38;;;6.10;99.90;;;;;;4961545;28;20129;-76
2022/11/23 04:52:03;;;;;;;19.05;15.95;;;6.10;99.90;;;;;;4963383;28;20034;-75
2022/11/23 04:54:35;;;;;;;16.83;15.23;;;6.10;99.90;;;;;;4961870;28;20050;-75
2022/11/23 04:57:06;;;;;;;16.63;14.93;;;6.10;99.90;;;;;;4962192;28;20050;-76
2022/11/23 04:59:33;;;;;;;17.63;15.88;;;6.10;99.90;;;;;;4962719;28;20085;-75
2022/11/23 05:02:00;;;;;;;15.45;14.00;;;6.10;99.90;;;;;;4958410;28;20050;-76
2022/11/23 05:04:43;;;;;;;17.02;15.18;;;6.10;99.90;;;;;;4962696;28;20039;-76
2022/11/23 05:07:10;;;;;;;18.83;14.43;;;6.10;99.90;;;;;;4963903;28;20081;-75
2022/11/23 05:09:43;;;;;;;18.33;15.73;;;6.10;99.90;;;;;;4960539;28;20141;-76
2022/11/23 05:12:15;;;;;;;18.05;15.95;;;6.10;99.90;;;;;;4962810;28;20042;-75
2022/11/23 05:14:43;;;;;;;17.70;15.90;;;6.10;99.90;;;;;;4978872;28;20078;-76
2022/11/23 05:17:13;;;;;;;18.08;15.77;;;6.20;99.90;;;;;;4963654;28;20038;-75
2022/11/23 05:19:40;;;;;;;18.20;15.18;;;6.20;99.90;;;;;;4960927;28;20467;-76
2022/11/23 05:22:07;;;;;;;15.45;14.13;;;6.20;99.90;;;;;;4961543;28;20667;-78
2022/11/23 05:24:36;;;;;;;16.90;14.82;;;6.20;99.90;;;;;;4965599;28;20365;-78
2022/11/23 05:27:16;;;;;;;18.08;16.20;;;6.20;99.90;;;;;;4947740;28;20039;-78
2022/11/23 05:29:43;;;;;;;16.30;13.63;;;6.30;99.90;;;;;;4958402;28;20665;-78
2022/11/23 05:32:10;;;;;;;16.52;14.82;;;6.30;99.90;;;;;;4968689;28;20250;-77
2022/11/23 05:34:37;;;;;;;18.95;16.33;;;6.30;99.90;;;;;;4962154;28;20053;-77
2022/11/23 05:37:06;;;;;;;17.52;15.70;;;6.30;99.90;;;;;;4962674;28;20540;-77
2022/11/23 05:39:34;;;;;;;17.10;15.57;;;6.30;99.90;;;;;;4961332;28;20516;-77
2022/11/23 05:42:00;;;;;;;17.70;16.02;;;6.20;99.90;;;;;;4946406;28;20065;-77
2022/11/23 05:44:35;;;;;;;;;;;6.20;99.90;;;;;;4960127;28;20053;-78
2022/11/23 05:47:04;;;;;;;17.60;15.98;;;6.20;99.90;;;;;;4958009;28;19953;-75
2022/11/23 05:49:32;;;;;;;21.10;17.25;;;6.20;99.90;;;;;;4960999;28;20034;-77
2022/11/23 05:52:01;;;;;;;18.58;16.42;;;6.20;99.90;;;;;;4945928;28;20092;-75
2022/11/23 05:54:29;;;;;;;17.80;16.40;;;6.20;99.90;;;;;;4960846;28;20133;-77
2022/11/23 05:57:11;;;;;;;21.67;16.60;;;6.20;99.90;;;;;;4969523;28;20046;-77
2022/11/23 05:59:43;;;;;;;17.65;15.95;;;6.30;99.90;;;;;;4964792;28;20076;-78
2022/11/23 06:02:15;;;;;;;17.60;15.90;;;6.30;99.90;;;;;;4964701;28;20415;-76
2022/11/23 06:04:42;;;;;;;16.63;14.93;;;6.20;99.90;;;;;;4963298;28;20121;-75
2022/11/23 06:07:13;;;;;;;18.48;16.42;;;6.20;99.90;;;;;;4965480;28;20041;-75
2022/11/23 06:09:58;;;;;;;18.20;15.18;;;6.30;99.90;;;;;;4968072;28;20399;-75
2022/11/23 06:12:27;;;;;;;17.33;15.60;;;6.30;99.90;;;;;;4969344;28;20038;-75
2022/11/23 06:14:54;;;;;;;18.95;16.92;;;6.30;99.90;;;;;;4982308;28;20048;-75
2022/11/23 06:17:24;;;;;;;18.30;15.85;;;6.30;99.90;;;;;;4964858;28;20073;-77
2022/11/23 06:19:55;;;;;;;19.25;17.35;;;6.30;99.90;;;;;;4961788;28;20104;-78
2022/11/23 06:22:22;;;;;;;18.30;16.73;;;6.30;99.90;;;;;;4978940;28;20046;-77
2022/11/23 06:24:59;;;;;;;18.60;16.77;;;6.30;99.90;;;;;;4970416;28;20416;-78
2022/11/23 06:27:29;;;;;;;18.20;16.60;;;6.30;99.90;;;;;;4980944;28;20086;-77
2022/11/23 06:29:56;;;;;;;19.90;17.48;;;6.30;99.90;;;;;;4966528;28;20065;-77
2022/11/23 06:32:26;;;;;;;18.25;16.70;;;6.20;99.90;;;;;;4975569;28;20050;-75
2022/11/23 06:34:53;;;;;;;20.52;17.42;;;6.20;99.90;;;;;;4965963;28;20046;-75
2022/11/23 06:37:27;;;;;;;;;;;6.20;99.90;;;;;;4965136;28;20046;-76
2022/11/23 06:39:54;;;;;;;18.40;16.50;;;6.20;99.90;;;;;;4968512;28;19964;-75
2022/11/23 06:42:21;;;;;;;18.38;16.55;;;6.20;99.90;;;;;;4966509;28;20042;-76
2022/11/23 06:45:10;;;;;;;22.65;17.10;;;6.30;99.90;;;;;;4976572;28;20178;-76
2022/11/23 06:47:37;;;;;;;18.98;14.82;;;6.30;99.90;;;;;;4965015;28;20046;-75
2022/11/23 06:50:04;;;;;;;17.30;15.88;;;6.30;99.90;;;;;;4963571;28;20488;-76
2022/11/23 06:52:31;;;;;;;17.95;16.25;;;6.30;99.90;;;;;;4965246;28;20101;-76
2022/11/23 06:54:58;;;;;;;17.90;16.20;;;6.30;99.90;;;;;;4952743;28;20635;-76
2022/11/23 06:57:25;;;;;;;17.25;15.50;;;6.30;99.90;;;;;;4979655;28;20525;-75
2022/11/23 06:59:53;;;;;;;18.80;16.63;;;6.40;99.90;;;;;;4980261;28;20050;-76
2022/11/23 07:02:25;;;;;;;18.35;16.38;;;6.30;99.90;;;;;;4971079;28;20042;-76
2022/11/23 07:04:53;;;;;;;18.33;16.48;;;6.40;99.90;;;;;;4980207;28;20078;-75
2022/11/23 07:07:20;;;;;;;18.65;16.77;;;6.40;99.90;;;;;;4963936;28;20042;-75
2022/11/23 07:09:57;;;;;;;17.02;15.50;;;6.40;99.90;;;;;;4971563;28;20049;-75
2022/11/23 07:12:42;;;;;;;;;;;6.40;99.90;;;;;;4959347;28;20778;-76
2022/11/23 07:15:09;;;;;;;18.65;15.43;;;6.50;99.90;;;;;;4950207;28;20282;-75
2022/11/23 07:17:43;;;;;;;20.52;16.67;;;6.40;99.90;;;;;;4964229;28;20073;-76
2022/11/23 07:20:11;;;;;;;17.63;16.00;;;6.50;99.90;;;;;;4958972;28;20699;-75
2022/11/23 07:22:38;;;;;;;17.17;15.55;;;6.40;99.90;;;;;;4961033;28;20522;-75
2022/11/23 07:25:05;;;;;;;22.85;18.65;;;6.40;99.90;;;;;;4968928;28;20470;-76
2022/11/23 07:27:32;;;;;;;19.33;17.92;;;6.50;99.90;;;;;;4976441;28;20046;-75
2022/11/23 07:30:00;;;;;;;20.08;18.63;;;6.50;99.90;;;;;;4962419;28;20042;-76
2022/11/23 07:32:27;;;;;;;21.35;19.30;;;6.50;99.90;;;;;;4963469;28;20478;-75
2022/11/23 07:34:54;;;;;;;21.92;19.35;;;6.50;99.90;;;;;;4948482;28;20047;-75
2022/11/23 07:37:37;;;;;;;19.65;17.92;;;6.50;99.90;;;;;;4968970;28;20213;-75
2022/11/23 07:40:05;;;;;;;22.80;20.45;;;6.50;99.90;;;;;;4963343;28;20125;-76
2022/11/23 07:42:33;;;;;;;20.75;18.83;;;6.60;99.90;;;;;;4946808;28;20524;-76
2022/11/23 07:45:09;;;;;;;;;;;6.60;99.90;;;;;;4965852;28;20066;-76
2022/11/23 07:47:38;;;;;;;20.65;19.10;;;6.60;99.90;;;;;;4948108;28;19926;-75
2022/11/23 07:50:09;;;;;;;20.60;18.95;;;6.60;99.90;;;;;;4981272;28;20697;-75
2022/11/23 07:52:37;;;;;;;20.70;18.58;;;6.50;99.90;;;;;;4976641;28;20470;-75
2022/11/23 07:55:05;;;;;;;19.80;18.20;;;6.50;99.90;;;;;;4946561;28;20038;-76
2022/11/23 07:57:32;;;;;;;20.85;18.75;;;6.40;99.90;;;;;;4961196;28;20496;-76
2022/11/23 07:59:58;;;;;;;21.17;19.13;;;6.40;99.90;;;;;;4982571;28;20039;-76
2022/11/23 08:02:38;;;;;;;21.50;19.75;;;6.50;99.90;;;;;;4977773;28;20101;-76
2022/11/23 08:05:25;;;;;;;20.20;18.50;;;6.50;99.90;;;;;;4980665;28;20061;-76
2022/11/23 08:07:58;;;;;;;22.70;20.75;;;6.60;99.90;;;;;;4948758;28;20054;-75
2022/11/23 08:10:29;;;;;;;21.90;19.83;;;6.70;99.90;;;;;;4980327;28;20535;-77
2022/11/23 08:13:01;;;;;;;22.58;20.60;;;6.80;99.90;;;;;;4965916;28;20042;-76
2022/11/23 08:15:29;;;;;;;22.30;20.45;;;6.90;99.90;;;;;;4964233;28;20550;-76
2022/11/23 08:17:57;;;;;;;24.23;22.23;;;7.00;99.90;;;;;;4964578;28;20049;-76
2022/11/23 08:20:24;;;;;;;23.90;21.83;;;7.10;99.90;;;;;;4964261;28;20503;-75
2022/11/23 08:22:51;;;;;;;25.90;23.45;;;7.20;99.90;;;;;;4977333;28;20089;-76
2022/11/23 08:25:18;;;;;;;58.83;45.47;;;7.30;99.90;;;;;;4982448;28;20050;-75
2022/11/23 08:27:45;;;;;;;27.27;25.20;;;7.30;99.90;;;;;;4980430;28;20034;-76
2022/11/23 08:30:12;;;;;;;27.77;25.70;;;7.40;99.90;;;;;;4986499;28;20041;-76
2022/11/23 08:32:38;;;;;;;26.48;24.35;;;7.50;99.90;;;;;;4979868;28;20034;-75
2022/11/23 08:35:05;;;;;;;27.90;25.70;;;7.50;99.90;;;;;;4965532;28;20046;-77
2022/11/23 08:37:32;;;;;;;26.73;24.83;;;7.60;99.90;;;;;;4963143;28;20564;-75
2022/11/23 08:39:59;;;;;;;31.30;29.10;;;7.60;99.90;;;;;;4980455;28;20045;-76
2022/11/23 08:42:25;;;;;;;28.45;26.42;;;7.60;99.90;;;;;;4981532;28;20045;-75
2022/11/23 08:44:52;;;;;;;26.38;24.52;;;7.60;99.90;;;;;;4969288;28;20128;-76
2022/11/23 08:47:19;;;;;;;26.13;24.38;;;7.70;99.90;;;;;;4969992;28;20031;-77
2022/11/23 08:49:45;;;;;;;26.92;24.80;;;7.60;99.90;;;;;;4987246;28;20038;-76
2022/11/23 08:52:12;;;;;;;26.67;24.60;;;7.60;99.90;;;;;;4988171;28;20049;-75
2022/11/23 08:54:38;;;;;;;27.23;24.90;;;7.60;99.90;;;;;;4985888;28;20037;-75
2022/11/23 08:57:05;;;;;;;24.60;22.50;;;7.60;99.90;;;;;;4963205;28;20042;-76
2022/11/23 08:59:33;;;;;;;25.35;23.33;;;7.60;99.90;;;;;;4962725;28;20050;-77
2022/11/23 09:01:59;;;;;;;24.55;22.48;;;7.60;99.90;;;;;;4980393;28;21247;-76
2022/11/23 09:04:29;;;;;;;23.35;21.63;;;7.60;99.90;;;;;;4962243;28;20039;-75
2022/11/23 09:06:56;;;;;;;23.40;21.75;;;7.60;99.90;;;;;;4962845;28;20069;-75
2022/11/23 09:09:23;;;;;;;24.50;22.35;;;7.60;99.90;;;;;;4963718;28;20392;-75
2022/11/23 09:11:50;;;;;;;24.15;22.27;;;7.60;99.90;;;;;;4963187;28;20073;-76
2022/11/23 09:14:17;;;;;;;25.42;23.60;;;7.70;99.90;;;;;;4979941;28;20048;-76
2022/11/23 09:16:43;;;;;;;25.10;23.10;;;7.70;99.90;;;;;;4947483;28;20559;-77
2022/11/23 09:19:12;;;;;;;24.38;22.98;;;7.80;99.90;;;;;;4964294;28;20038;-76
2022/11/23 09:21:41;;;;;;;25.95;23.70;;;7.80;99.90;;;;;;4944514;28;20046;-75
2022/11/23 09:24:10;;;;;;;23.85;22.27;;;7.80;99.90;;;;;;4959568;28;20042;-76
2022/11/23 09:26:38;;;;;;;25.73;23.73;;;7.80;99.90;;;;;;4978893;28;20062;-76
2022/11/23 09:29:06;;;;;;;25.85;23.52;;;7.80;99.90;;;;;;4963298;28;20141;-75
2022/11/23 09:31:34;;;;;;;23.60;21.92;;;7.80;99.90;;;;;;4960681;28;20534;-76
2022/11/23 09:34:02;;;;;;;23.65;21.85;;;7.80;99.90;;;;;;4976831;28;20050;-76
2022/11/23 09:36:29;;;;;;;28.17;26.25;;;7.80;99.90;;;;;;4980263;28;20042;-76
2022/11/23 09:38:56;;;;;;;30.00;27.67;;;7.70;99.90;;;;;;4977527;28;20038;-76
2022/11/23 09:41:40;;;;;;;30.63;27.63;;;7.80;99.90;;;;;;4978210;28;20581;-76
2022/11/23 09:44:23;;;;;;;28.95;26.80;;;7.80;99.90;;;;;;4978281;28;20045;-75
2022/11/23 09:46:58;;;;;;;29.83;27.10;;;7.90;99.90;;;;;;4964660;28;20046;-76
2022/11/23 09:49:43;;;;;;;29.48;27.23;;;8.00;99.90;;;;;;4978179;28;20044;-76
2022/11/23 09:52:22;;;;;;;30.70;28.45;;;8.00;99.90;;;;;;4977883;28;20046;-75
2022/11/23 09:54:55;;;;;;;29.17;26.83;;;8.00;99.90;;;;;;4974672;28;20072;-76
2022/11/23 09:57:29;;;;;;;26.70;24.33;;;8.10;99.90;;;;;;4978176;28;20178;-76
2022/11/23 10:00:05;;;;;;;32.33;30.17;;;8.40;99.90;;;;;;4957641;28;20042;-76
2022/11/23 10:02:38;;;;;;;33.78;31.52;;;8.70;99.90;;;;;;4977030;28;20042;-76
2022/11/23 10:05:09;;;;;;;33.53;31.00;;;8.90;99.90;;;;;;4974995;28;20062;-76
2022/11/23 10:07:55;;;;;;;31.63;29.70;;;9.00;99.90;;;;;;4976902;28;20042;-77
2022/11/23 10:10:38;;;;;;;31.70;29.88;;;9.10;99.90;;;;;;4960693;28;20046;-76
2022/11/23 10:13:41;;;;;;;34.35;31.52;;;9.30;99.90;;;;;;4978900;28;20649;-76
2022/11/23 10:16:23;;;;;;;36.53;33.67;;;9.40;99.90;;;;;;4981557;28;20580;-75
2022/11/23 10:19:02;;;;;;;34.08;31.70;;;9.40;99.90;;;;;;4972626;28;20467;-76
2022/11/23 10:21:49;;;;;;;31.17;28.77;;;9.40;99.90;;;;;;4977533;28;20034;-75
2022/11/23 10:24:18;;;;;;;36.28;33.63;;;9.10;99.90;;;;;;4972384;28;20038;-76
2022/11/23 10:26:48;;;;;;;33.38;31.00;;;8.70;99.90;;;;;;4945741;28;20081;-76
2022/11/23 10:29:34;;;;;;;32.08;29.77;;;8.70;99.90;;;;;;4979553;28;20141;-77
2022/11/23 10:32:03;;;;;;;30.45;28.10;;;8.90;99.90;;;;;;4981065;28;20047;-78
2022/11/23 10:34:54;;;;;;;37.38;34.72;;;9.00;99.90;;;;;;4978904;28;20049;-76
2022/11/23 10:37:21;;;;;;;38.20;34.97;;;8.90;99.90;;;;;;4961270;28;20038;-76
2022/11/23 10:39:48;;;;;;;36.05;33.47;;;8.80;99.90;;;;;;4959248;28;20047;-75
2022/11/23 10:42:42;;;;;;;37.13;34.30;;;8.60;99.90;;;;;;4977611;28;20034;-75
2022/11/23 10:45:27;;;;;;;35.22;32.25;;;8.50;99.90;;;;;;4965534;28;20073;-75
2022/11/23 10:47:58;;;;;;;36.08;33.55;;;8.50;99.90;;;;;;4980544;28;20097;-76
2022/11/23 10:50:36;;;;;;;38.60;35.05;;;8.50;99.90;;;;;;4966091;28;20743;-75
2022/11/23 10:53:08;;;;;;;32.58;29.70;;;8.60;99.90;;;;;;4958291;28;20127;-75
2022/11/23 10:55:53;;;;;;;32.42;29.75;;;8.70;99.90;;;;;;4981170;28;20045;-75
2022/11/23 10:58:40;;;;;;;;;;;8.90;99.90;;;;;;4962202;28;20061;-77
2022/11/23 11:01:23;;;;;;;36.70;34.28;;;9.10;99.90;;;;;;4961276;28;20455;-76
2022/11/23 11:03:54;;;;;;;29.98;27.95;;;9.20;99.90;;;;;;4961317;28;20043;-76
2022/11/23 11:06:26;;;;;;;37.42;34.85;;;9.40;99.90;;;;;;4980610;28;20157;-77
2022/11/23 11:08:55;;;;;;;36.75;33.97;;;9.30;99.90;;;;;;4958120;28;20507;-76
2022/11/23 11:11:27;;;;;;;38.53;34.88;;;9.20;99.90;;;;;;4967578;28;20034;-75
2022/11/23 11:14:13;;;;;;;29.88;27.48;;;9.20;99.90;;;;;;4964961;28;20050;-75
2022/11/23 11:16:52;;;;;;;31.38;28.63;;;9.10;99.90;;;;;;4965187;28;20044;-75
2022/11/23 11:19:32;;;;;;;32.25;29.58;;;9.30;99.90;;;;;;4960260;28;20042;-75
2022/11/23 11:22:00;;;;;;;33.97;30.98;;;9.50;99.90;;;;;;4981725;28;20073;-75
2022/11/23 11:24:37;;;;;;;31.20;29.20;;;9.50;99.90;;;;;;4951619;28;20043;-75
2022/11/23 11:27:16;;;;;;;29.90;27.75;;;9.40;99.90;;;;;;4977382;28;20237;-77
2022/11/23 11:29:42;;;;;;;29.30;27.20;;;9.20;99.90;;;;;;4962900;28;20157;-77
2022/11/23 11:32:13;;;;;;;30.50;28.58;;;9.40;99.90;;;;;;4986224;28;20037;-76
2022/11/23 11:34:44;;;;;;;29.08;27.00;;;9.40;99.90;;;;;;4964329;28;20045;-77
2022/11/23 11:37:22;;;;;;;29.80;27.52;;;9.40;99.90;;;;;;4985195;28;20046;-77
2022/11/23 11:40:25;;;;;;;29.25;27.27;;;9.50;99.90;;;;;;4958798;28;20038;-75
2022/11/23 11:43:14;;;;;;;30.67;28.45;;;9.60;99.90;;;;;;4975870;28;20058;-77
2022/11/23 11:45:52;;;;;;;30.20;28.30;;;9.50;99.90;;;;;;4961374;28;20471;-76
2022/11/23 11:48:54;;;;;;;29.90;27.95;;;9.50;99.90;;;;;;4975244;28;20101;-77
2022/11/23 11:51:28;;;;;;;31.35;29.25;;;9.40;99.90;;;;;;4958635;28;20041;-76
2022/11/23 11:54:20;;;;;;;31.95;29.88;;;9.20;99.90;;;;;;4961111;28;20093;-76
2022/11/23 11:56:53;;;;;;;31.15;28.95;;;9.10;99.90;;;;;;4976370;28;20070;-77
2022/11/23 11:59:31;;;;;;;32.70;29.95;;;9.00;99.90;;;;;;4954377;28;20180;-77
2022/11/23 12:01:58;;;;;;;29.83;27.55;;;9.10;99.90;;;;;;4972422;28;20046;-77
2022/11/23 12:04:39;;;;;;;29.15;27.02;;;9.20;99.90;;;;;;4981292;28;20038;-76
2022/11/23 12:07:26;;;;;;;29.17;27.05;;;9.30;99.90;;;;;;4960078;28;20038;-76
2022/11/23 12:09:59;;;;;;;30.73;28.02;;;9.20;99.90;;;;;;4960498;28;20047;-77
2022/11/23 12:12:28;;;;;;;31.08;29.08;;;9.20;99.90;;;;;;4959342;28;20045;-77
2022/11/23 12:14:56;;;;;;;28.77;27.08;;;9.00;99.90;;;;;;4956809;28;20046;-77
2022/11/23 12:17:37;;;;;;;30.63;27.58;;;9.00;99.90;;;;;;4960742;28;20038;-78
2022/11/23 12:20:21;;;;;;;29.02;26.95;;;9.10;99.90;;;;;;4962978;28;20053;-77
2022/11/23 12:23:15;;;;;;;30.73;28.40;;;9.20;99.90;;;;;;4961093;28;20123;-77
2022/11/23 12:26:04;;;;;;;25.95;24.27;;;9.30;99.90;;;;;;4960429;28;20051;-77
2022/11/23 12:29:00;;;;;;;29.63;27.33;;;9.30;99.90;;;;;;4961082;28;20214;-77
2022/11/23 12:31:41;;;;;;;27.38;25.23;;;9.10;99.90;;;;;;4976430;28;20050;-77
2022/11/23 12:34:23;;;;;;;28.42;26.05;;;9.10;99.90;;;;;;4977008;28;20056;-78
2022/11/23 12:37:23;;;;;;;26.77;24.70;;;9.10;99.90;;;;;;4957451;28;20165;-77
2022/11/23 12:40:11;;;;;;;27.45;24.98;;;9.10;99.90;;;;;;4975530;28;20059;-77
2022/11/23 12:42:51;;;;;;;27.85;25.63;;;9.10;99.90;;;;;;4943351;28;20388;-78
2022/11/23 12:45:26;;;;;;;27.95;25.85;;;9.00;99.90;;;;;;4975040;28;20044;-77
2022/11/23 12:48:36;;;;;;;26.50;24.45;;;9.00;99.90;;;;;;4958142;28;20067;-77
2022/11/23 12:51:21;;;;;;;27.15;25.20;;;9.00;99.90;;;;;;4959895;28;20231;-77
2022/11/23 12:53:47;;;;;;;;;;;9.00;99.90;;;;;;4958881;28;20067;-77
2022/11/23 12:56:22;;;;;;;27.92;25.67;;;8.90;99.90;;;;;;4961336;28;19922;-77
2022/11/23 12:58:51;;;;;;;27.60;25.35;;;8.90;99.90;;;;;;4961996;28;20475;-76
2022/11/23 13:01:46;;;;;;;26.30;24.50;;;9.00;99.90;;;;;;4975215;28;20042;-77
2022/11/23 13:04:34;;;;;;;27.33;25.35;;;9.00;99.90;;;;;;4966328;28;20046;-77
2022/11/23 13:07:20;;;;;;;28.55;25.92;;;8.90;99.90;;;;;;4960327;28;20096;-77
2022/11/23 13:10:18;;;;;;;28.85;26.63;;;8.80;99.90;;;;;;4961203;28;20093;-77